createdAt,value
2023-05-24T00:01:42.336Z,55.75
2023-05-24T00:04:09.301Z,55.69
2023-05-24T00:06:37.319Z,55.73
2023-05-24T00:09:06.904Z,55.75
2023-05-24T00:11:36.082Z,55.68
2023-05-24T00:14:02.859Z,55.76
2023-05-24T00:16:29.697Z,55.73
2023-05-24T00:18:58.394Z,55.78
2023-05-24T00:21:25.183Z,56.12
2023-05-24T00:23:52.090Z,56.17
2023-05-24T00:26:18.947Z,56.12
2023-05-24T00:28:48.241Z,56.16
2023-05-24T00:31:15.040Z,56.01
2023-05-24T00:33:41.747Z,56.14
2023-05-24T00:36:10.652Z,56.14
2023-05-24T00:38:42.946Z,56.17
2023-05-24T00:41:11.682Z,56.30
2023-05-24T00:43:38.496Z,56.43
2023-05-24T00:46:24.728Z,56.22
2023-05-24T00:48:53.815Z,56.41
2023-05-24T00:51:20.635Z,56.53
2023-05-24T00:53:48.334Z,56.36
2023-05-24T00:56:17.709Z,56.39
2023-05-24T00:58:46.829Z,56.68
2023-05-24T01:01:15.873Z,56.83
2023-05-24T01:03:46.420Z,56.61
2023-05-24T01:06:13.514Z,56.79
2023-05-24T01:08:40.354Z,56.75
2023-05-24T01:11:35.259Z,56.69
2023-05-24T01:14:41.001Z,56.74
2023-05-24T01:17:48.848Z,56.74
2023-05-24T01:20:17.771Z,56.59
2023-05-24T01:23:06.405Z,56.38
2023-05-24T01:25:44.522Z,56.51
2023-05-24T01:28:13.800Z,56.54
2023-05-24T01:30:40.971Z,56.39
2023-05-24T01:33:07.808Z,56.47
2023-05-24T01:35:40.222Z,56.82
2023-05-24T01:38:11.180Z,56.65
2023-05-24T01:40:41.174Z,56.72
2023-05-24T01:43:24.358Z,56.59
2023-05-24T01:45:54.254Z,56.75
2023-05-24T01:48:58.655Z,56.62
2023-05-24T01:51:30.523Z,56.84
2023-05-24T01:53:57.146Z,56.83
2023-05-24T01:56:23.841Z,56.68
2023-05-24T01:58:55.897Z,56.86
2023-05-24T02:01:26.034Z,56.93
2023-05-24T02:03:52.811Z,57.01
2023-05-24T02:06:19.973Z,56.96
2023-05-24T02:08:46.742Z,56.99
2023-05-24T02:11:13.413Z,57.17
2023-05-24T02:13:42.320Z,57.08
2023-05-24T02:16:13.636Z,57.06
2023-05-24T02:18:44.966Z,57.21
2023-05-24T02:21:13.880Z,57.47
2023-05-24T02:23:40.833Z,57.27
2023-05-24T02:26:07.772Z,57.47
2023-05-24T02:28:34.511Z,57.56
2023-05-24T02:31:03.438Z,57.49
2023-05-24T02:33:32.299Z,57.69
2023-05-24T02:36:01.505Z,57.69
2023-05-24T02:38:32.880Z,57.78
2023-05-24T02:40:59.601Z,57.86
2023-05-24T02:43:26.266Z,57.93
2023-05-24T02:45:53.003Z,57.93
2023-05-24T02:48:19.748Z,57.77
2023-05-24T02:50:48.629Z,57.67
2023-05-24T02:53:17.555Z,57.67
2023-05-24T02:55:46.682Z,57.49
2023-05-24T02:58:18.149Z,57.55
2023-05-24T03:00:47.181Z,57.52
2023-05-24T03:03:13.887Z,57.43
2023-05-24T03:05:45.281Z,57.40
2023-05-24T03:08:11.991Z,57.36
2023-05-24T03:10:38.772Z,57.47
2023-05-24T03:13:07.829Z,57.79
2023-05-24T03:15:34.591Z,57.84
2023-05-24T03:18:01.347Z,57.67
2023-05-24T03:20:34.041Z,57.56
2023-05-24T03:23:03.273Z,57.56
2023-05-24T03:25:33.081Z,57.67
2023-05-24T03:27:59.935Z,57.79
2023-05-24T03:30:31.427Z,57.65
2023-05-24T03:32:58.214Z,57.69
2023-05-24T03:35:24.993Z,57.68
2023-05-24T03:37:56.846Z,58.01
2023-05-24T03:40:25.821Z,57.59
2023-05-24T03:42:52.475Z,57.73
2023-05-24T03:45:34.614Z,57.87
2023-05-24T03:48:05.061Z,57.71
2023-05-24T03:50:34.073Z,57.79
2023-05-24T03:53:03.090Z,57.49
2023-05-24T03:55:32.118Z,57.89
2023-05-24T03:58:04.167Z,57.92
2023-05-24T04:00:31.018Z,57.60
2023-05-24T04:02:57.668Z,57.73
2023-05-24T04:05:29.819Z,57.52
2023-05-24T04:07:58.779Z,57.39
2023-05-24T04:10:25.498Z,57.50
2023-05-24T04:12:57.215Z,57.58
2023-05-24T04:15:26.927Z,57.31
2023-05-24T04:17:56.197Z,57.28
2023-05-24T04:20:27.948Z,57.52
2023-05-24T04:22:56.897Z,57.30
2023-05-24T04:25:26.990Z,57.38
2023-05-24T04:27:53.716Z,57.15
2023-05-24T04:30:22.777Z,57.38
2023-05-24T04:32:52.283Z,57.35
2023-05-24T04:35:23.829Z,57.32
2023-05-24T04:37:52.637Z,57.27
2023-05-24T04:40:23.042Z,57.33
2023-05-24T04:42:50.311Z,57.32
2023-05-24T04:45:17.123Z,57.14
2023-05-24T04:47:46.632Z,57.25
2023-05-24T04:50:13.498Z,57.31
2023-05-24T04:52:42.986Z,57.58
2023-05-24T04:55:10.323Z,57.25
2023-05-24T04:57:36.969Z,57.15
2023-05-24T05:00:04.981Z,57.17
2023-05-24T05:02:32.075Z,57.17
2023-05-24T05:04:58.839Z,57.10
2023-05-24T05:07:27.747Z,57.09
2023-05-24T05:09:57.064Z,57.16
2023-05-24T05:12:23.984Z,56.99
2023-05-24T05:14:53.252Z,57.16
2023-05-24T05:17:22.094Z,57.19
2023-05-24T05:19:48.833Z,57.20
2023-05-24T05:22:18.583Z,57.17
2023-05-24T05:24:45.218Z,56.90
2023-05-24T05:27:14.181Z,56.96
2023-05-24T05:29:41.693Z,56.89
2023-05-24T05:32:08.724Z,57.15
2023-05-24T05:34:40.201Z,56.99
2023-05-24T05:37:07.405Z,56.92
2023-05-24T05:39:34.092Z,56.98
2023-05-24T05:42:03.525Z,57.13
2023-05-24T05:44:30.198Z,56.97
2023-05-24T05:46:56.954Z,57.21
2023-05-24T05:49:26.029Z,57.06
2023-05-24T05:51:55.031Z,57.04
2023-05-24T05:54:27.920Z,57.36
2023-05-24T05:56:58.214Z,57.07
2023-05-24T05:59:28.522Z,56.95
2023-05-24T06:01:55.313Z,56.92
2023-05-24T06:04:22.032Z,57.04
2023-05-24T06:06:53.533Z,56.72
2023-05-24T06:09:22.691Z,56.59
2023-05-24T06:11:52.255Z,56.78
2023-05-24T06:14:21.435Z,56.78
2023-05-24T06:16:51.279Z,56.78
2023-05-24T06:19:18.567Z,56.93
2023-05-24T06:21:48.477Z,56.76
2023-05-24T06:24:17.974Z,56.77
2023-05-24T06:26:45.624Z,56.60
2023-05-24T06:29:19.712Z,56.62
2023-05-24T06:31:47.502Z,56.65
2023-05-24T06:34:19.013Z,56.62
2023-05-24T06:36:47.912Z,54.38
2023-05-24T06:39:15.343Z,53.25
2023-05-24T06:41:43.300Z,51.24
2023-05-24T06:44:12.141Z,51.28
2023-05-24T06:46:41.563Z,50.62
2023-05-24T06:49:10.469Z,48.56
2023-05-24T06:51:39.375Z,47.91
2023-05-24T06:54:09.069Z,48.39
2023-05-24T06:56:35.757Z,49.09
2023-05-24T06:59:04.644Z,48.94
2023-05-24T07:01:33.828Z,48.59
2023-05-24T07:04:03.424Z,48.01
2023-05-24T07:06:32.389Z,49.17
2023-05-24T07:08:59.367Z,48.27
2023-05-24T07:11:28.397Z,49.43
2023-05-24T07:13:55.255Z,48.82
2023-05-24T07:16:26.669Z,48.31
2023-05-24T07:18:58.380Z,48.66
2023-05-24T07:21:27.378Z,49.32
2023-05-24T07:23:57.115Z,48.73
2023-05-24T07:26:29.699Z,48.42
2023-05-24T07:28:58.512Z,48.73
2023-05-24T07:31:29.870Z,49.76
2023-05-24T07:33:58.747Z,49.59
2023-05-24T07:36:26.174Z,49.99
2023-05-24T07:38:55.767Z,50.25
2023-05-24T07:41:23.282Z,50.48
2023-05-24T07:43:49.988Z,50.76
2023-05-24T07:46:19.298Z,50.77
2023-05-24T07:48:46.252Z,51.14
2023-05-24T07:51:15.695Z,51.73
2023-05-24T07:53:44.880Z,51.45
2023-05-24T07:56:11.632Z,51.56
2023-05-24T07:58:43.068Z,51.83
2023-05-24T08:01:13.262Z,52.03
2023-05-24T08:03:40.093Z,51.82
2023-05-24T08:06:06.874Z,51.65
2023-05-24T08:08:33.800Z,51.54
2023-05-24T08:11:00.501Z,51.54
2023-05-24T08:13:27.250Z,51.86
2023-05-24T08:15:53.983Z,51.29
2023-05-24T08:18:22.874Z,51.51
2023-05-24T08:20:49.622Z,51.61
2023-05-24T08:23:18.786Z,52.64
2023-05-24T08:25:47.732Z,52.98
2023-05-24T08:28:17.114Z,53.07
2023-05-24T08:30:43.925Z,53.11
2023-05-24T08:33:12.808Z,53.51
2023-05-24T08:35:39.624Z,53.45
2023-05-24T08:38:07.042Z,53.19
2023-05-24T08:40:36.408Z,52.87
2023-05-24T08:43:03.544Z,53.01
2023-05-24T08:45:31.329Z,52.16
2023-05-24T08:48:00.460Z,51.30
2023-05-24T08:50:29.867Z,51.76
2023-05-24T08:52:56.631Z,52.09
2023-05-24T08:55:30.000Z,52.29
2023-05-24T08:58:01.205Z,52.06
2023-05-24T09:00:28.024Z,52.23
2023-05-24T09:02:54.792Z,52.30
2023-05-24T09:05:24.483Z,52.26
2023-05-24T09:07:51.241Z,52.42
2023-05-24T09:10:23.838Z,52.43
2023-05-24T09:12:55.762Z,52.08
2023-05-24T09:15:22.593Z,51.87
2023-05-24T09:17:49.528Z,51.32
2023-05-24T09:20:16.600Z,51.23
2023-05-24T09:22:43.977Z,51.22
2023-05-24T09:25:13.051Z,51.04
2023-05-24T09:27:40.077Z,51.14
2023-05-24T09:30:11.058Z,50.32
2023-05-24T09:32:38.074Z,50.33
2023-05-24T09:35:08.359Z,50.57
2023-05-24T09:37:40.428Z,50.02
2023-05-24T09:40:09.123Z,49.66
2023-05-24T09:42:36.461Z,49.36
2023-05-24T09:45:09.435Z,49.09
2023-05-24T09:47:37.222Z,48.64
2023-05-24T09:50:05.334Z,49.55
2023-05-24T09:52:33.871Z,48.98
2023-05-24T09:55:01.288Z,48.32
2023-05-24T09:57:30.369Z,48.30
2023-05-24T09:59:59.342Z,48.46
2023-05-24T10:02:26.141Z,48.40
2023-05-24T10:05:00.749Z,48.09
2023-05-24T10:07:27.748Z,48.24
2023-05-24T10:09:55.330Z,48.90
2023-05-24T10:12:25.830Z,48.50
2023-05-24T10:14:57.586Z,48.82
2023-05-24T10:17:28.158Z,49.00
2023-05-24T10:19:57.137Z,48.96
2023-05-24T10:22:26.197Z,49.01
2023-05-24T10:25:00.111Z,49.52
2023-05-24T10:27:31.711Z,49.73
2023-05-24T10:30:09.478Z,49.79
2023-05-24T10:32:40.212Z,49.83
2023-05-24T10:35:07.651Z,49.79
2023-05-24T10:37:37.264Z,49.71
2023-05-24T10:40:06.763Z,49.68
2023-05-24T10:42:35.953Z,49.84
2023-05-24T10:45:27.812Z,49.59
2023-05-24T10:47:56.756Z,49.99
2023-05-24T10:50:24.502Z,49.58
2023-05-24T10:52:51.228Z,49.39
2023-05-24T10:55:19.537Z,49.52
2023-05-24T10:57:46.292Z,49.39
2023-05-24T11:00:34.494Z,49.35
2023-05-24T11:03:09.527Z,49.52
2023-05-24T11:05:46.796Z,49.32
2023-05-24T11:08:16.067Z,49.47
2023-05-24T11:10:45.913Z,49.54
2023-05-24T11:13:12.631Z,49.21
2023-05-24T11:15:50.952Z,49.32
2023-05-24T11:18:20.395Z,49.15
2023-05-24T11:20:50.405Z,49.08
2023-05-24T11:23:17.328Z,49.01
2023-05-24T11:25:46.405Z,49.36
2023-05-24T11:28:13.310Z,49.26
2023-05-24T11:30:44.086Z,49.41
2023-05-24T11:33:14.828Z,48.77
2023-05-24T11:35:42.106Z,49.09
2023-05-24T11:38:13.529Z,48.80
2023-05-24T11:40:47.042Z,48.79
2023-05-24T11:43:16.672Z,48.36
2023-05-24T11:45:48.751Z,48.35
2023-05-24T11:48:18.916Z,48.37
2023-05-24T11:50:50.337Z,48.46
2023-05-24T11:53:21.226Z,48.19
2023-05-24T11:55:51.528Z,48.00
2023-05-24T11:58:21.429Z,48.03
2023-05-24T12:00:50.786Z,48.20
2023-05-24T12:03:20.537Z,47.74
2023-05-24T12:05:49.811Z,47.73
2023-05-24T12:08:20.462Z,47.59
2023-05-24T12:10:50.855Z,47.53
2023-05-24T12:13:23.334Z,47.54
2023-05-24T12:15:58.407Z,47.65
2023-05-24T12:18:28.385Z,47.62
2023-05-24T12:20:55.059Z,47.51
2023-05-24T12:23:24.344Z,47.45
2023-05-24T12:25:51.072Z,47.55
2023-05-24T12:28:24.815Z,47.47
2023-05-24T12:30:57.213Z,47.38
2023-05-24T12:33:24.092Z,47.56
2023-05-24T12:35:53.532Z,47.48
2023-05-24T12:38:25.491Z,47.53
2023-05-24T12:41:11.642Z,47.63
2023-05-24T12:43:40.804Z,47.39
2023-05-24T12:46:07.836Z,47.81
2023-05-24T12:48:40.299Z,47.92
2023-05-24T12:51:09.882Z,47.86
2023-05-24T12:53:39.202Z,47.80
2023-05-24T12:56:06.160Z,47.90
2023-05-24T12:58:35.043Z,47.67
2023-05-24T13:01:03.889Z,47.77
2023-05-24T13:03:30.720Z,47.51
2023-05-24T13:05:59.508Z,47.57
2023-05-24T13:08:28.724Z,47.51
2023-05-24T13:10:55.504Z,47.58
2023-05-24T13:13:24.385Z,47.49
2023-05-24T13:15:52.385Z,47.62
2023-05-24T13:18:21.479Z,47.17
2023-05-24T13:20:48.516Z,47.09
2023-05-24T13:23:15.468Z,47.19
2023-05-24T13:25:44.371Z,47.17
2023-05-24T13:28:11.520Z,46.98
2023-05-24T13:30:38.763Z,46.84
2023-05-24T13:33:05.980Z,46.68
2023-05-24T13:35:35.009Z,46.51
2023-05-24T13:38:04.167Z,46.13
2023-05-24T13:40:31.682Z,46.17
2023-05-24T13:42:58.979Z,45.93
2023-05-24T13:45:26.072Z,45.70
2023-05-24T13:47:53.958Z,46.21
2023-05-24T13:50:22.841Z,45.84
2023-05-24T13:52:49.672Z,45.90
2023-05-24T13:55:16.694Z,45.95
2023-05-24T14:00:17.680Z,45.98
2023-05-24T14:02:46.719Z,46.09
2023-05-24T14:05:25.940Z,46.44
2023-05-24T14:08:00.248Z,46.51
2023-05-24T14:10:29.463Z,46.46
2023-05-24T14:13:12.879Z,46.75
2023-05-24T14:15:46.822Z,46.46
2023-05-24T14:18:16.126Z,46.88
2023-05-24T14:20:47.550Z,47.01
2023-05-24T14:23:16.703Z,46.86
2023-05-24T14:25:46.958Z,46.89
2023-05-24T14:28:18.482Z,47.01
2023-05-24T14:30:45.257Z,46.93
2023-05-24T14:33:19.758Z,47.38
2023-05-24T14:35:46.706Z,47.27
2023-05-24T14:38:15.942Z,47.08
2023-05-24T14:40:47.584Z,47.53
2023-05-24T14:43:14.844Z,47.33
2023-05-24T14:45:43.925Z,47.49
2023-05-24T14:48:13.275Z,47.45
2023-05-24T14:50:40.429Z,47.40
2023-05-24T14:53:12.199Z,47.42
2023-05-24T14:55:57.855Z,47.33
2023-05-24T14:58:24.781Z,47.16
2023-05-24T15:00:51.613Z,47.28
2023-05-24T15:03:18.721Z,47.43
2023-05-24T15:05:45.677Z,47.67
2023-05-24T15:08:14.815Z,47.93
2023-05-24T15:10:44.468Z,48.03
2023-05-24T15:13:11.924Z,48.21
2023-05-24T15:15:42.043Z,48.40
2023-05-24T15:18:11.051Z,48.61
2023-05-24T15:20:40.465Z,48.47
2023-05-24T15:23:10.613Z,48.65
2023-05-24T15:25:39.687Z,49.33
2023-05-24T15:28:06.602Z,51.03
2023-05-24T15:30:33.346Z,50.07
2023-05-24T15:33:00.175Z,49.55
2023-05-24T15:35:27.522Z,49.14
2023-05-24T15:37:56.719Z,48.89
2023-05-24T15:40:27.084Z,49.15
2023-05-24T15:42:56.578Z,49.10
2023-05-24T15:45:23.504Z,49.09
2023-05-24T15:47:50.247Z,49.17
2023-05-24T15:50:28.560Z,49.01
2023-05-24T15:53:03.541Z,48.70
2023-05-24T15:55:30.378Z,48.71
2023-05-24T15:57:57.868Z,49.04
2023-05-24T16:00:29.956Z,48.90
2023-05-24T16:02:58.005Z,48.79
2023-05-24T16:05:26.949Z,48.51
2023-05-24T16:07:53.798Z,48.02
2023-05-24T16:10:23.668Z,48.14
2023-05-24T16:12:55.431Z,48.27
2023-05-24T16:15:22.334Z,48.44
2023-05-24T16:17:55.309Z,48.41
2023-05-24T16:20:22.282Z,48.51
2023-05-24T16:22:51.297Z,48.56
2023-05-24T16:25:17.961Z,48.68
2023-05-24T16:27:46.951Z,48.54
2023-05-24T16:30:16.292Z,48.56
2023-05-24T16:32:46.453Z,48.74
2023-05-24T16:35:13.279Z,48.88
2023-05-24T16:37:40.100Z,49.04
2023-05-24T16:40:07.681Z,49.04
2023-05-24T16:42:36.961Z,49.39
2023-05-24T16:45:04.014Z,49.44
2023-05-24T16:47:33.059Z,49.32
2023-05-24T16:49:59.933Z,49.52
2023-05-24T16:52:28.789Z,49.34
2023-05-24T16:54:57.685Z,49.63
2023-05-24T16:57:26.684Z,49.50
2023-05-24T16:59:58.188Z,49.75
2023-05-24T17:02:24.956Z,47.87
2023-05-24T17:04:53.944Z,47.63
2023-05-24T17:07:20.711Z,45.21
2023-05-24T17:09:50.214Z,44.48
2023-05-24T17:12:17.560Z,44.67
2023-05-24T17:14:44.621Z,45.37
2023-05-24T17:17:13.760Z,46.03
2023-05-24T17:19:42.705Z,46.89
2023-05-24T17:22:11.989Z,48.35
2023-05-24T17:24:40.902Z,48.11
2023-05-24T17:27:09.851Z,48.44
2023-05-24T17:29:39.185Z,48.51
2023-05-24T17:32:08.233Z,48.79
2023-05-24T17:34:34.987Z,49.05
2023-05-24T17:37:06.375Z,49.11
2023-05-24T17:39:35.849Z,49.45
2023-05-24T17:42:03.039Z,49.64
2023-05-24T17:44:29.902Z,49.95
2023-05-24T17:46:57.534Z,49.93
2023-05-24T17:49:26.664Z,50.17
2023-05-24T17:51:53.658Z,50.20
2023-05-24T17:54:22.517Z,50.35
2023-05-24T17:56:51.434Z,50.41
2023-05-24T17:59:18.348Z,49.99
2023-05-24T18:01:48.960Z,50.24
2023-05-24T18:04:18.062Z,49.78
2023-05-24T18:06:45.413Z,50.18
2023-05-24T18:09:14.252Z,50.14
2023-05-24T18:11:41.317Z,50.43
2023-05-24T18:14:08.051Z,50.35
2023-05-24T18:16:39.528Z,49.99
2023-05-24T18:19:09.023Z,50.11
2023-05-24T18:21:37.921Z,50.47
2023-05-24T18:24:07.297Z,50.52
2023-05-24T18:26:36.181Z,50.26
2023-05-24T18:29:05.088Z,50.64
2023-05-24T18:31:31.839Z,50.60
2023-05-24T18:34:01.898Z,50.36
2023-05-24T18:36:29.533Z,50.81
2023-05-24T18:38:56.561Z,50.58
2023-05-24T18:41:23.310Z,50.52
2023-05-24T18:43:50.053Z,50.63
2023-05-24T18:46:21.594Z,50.58
2023-05-24T18:48:48.376Z,50.79
2023-05-24T18:51:17.757Z,50.33
2023-05-24T18:53:48.900Z,50.66
2023-05-24T18:56:18.557Z,50.81
2023-05-24T18:58:49.661Z,50.86
2023-05-24T19:01:19.134Z,51.05
2023-05-24T19:03:48.216Z,50.91
2023-05-24T19:06:18.700Z,51.19
2023-05-24T19:08:45.506Z,51.13
2023-05-24T19:11:12.334Z,50.89
2023-05-24T19:13:41.915Z,51.08
2023-05-24T19:16:17.432Z,51.27
2023-05-24T19:18:47.289Z,51.42
2023-05-24T19:21:17.057Z,51.04
2023-05-24T19:23:48.480Z,51.40
2023-05-24T19:26:20.533Z,51.25
2023-05-24T19:28:51.935Z,51.09
2023-05-24T19:31:23.398Z,51.02
2023-05-24T19:36:25.983Z,51.13
2023-05-24T19:38:54.848Z,51.13
2023-05-24T19:41:24.118Z,51.06
2023-05-24T19:43:54.955Z,51.25
2023-05-24T19:46:23.218Z,51.05
2023-05-24T19:48:54.641Z,50.19
2023-05-24T19:51:21.450Z,50.01
2023-05-24T19:53:48.086Z,50.28
2023-05-24T19:56:14.793Z,49.48
2023-05-24T19:58:41.501Z,48.88
2023-05-24T20:01:10.563Z,49.04
2023-05-24T20:03:39.980Z,49.24
2023-05-24T20:06:06.973Z,48.52
2023-05-24T20:08:35.867Z,48.99
2023-05-24T20:11:03.405Z,48.46
2023-05-24T20:13:32.700Z,48.58
2023-05-24T20:16:01.787Z,48.40
2023-05-24T20:18:30.718Z,48.26
2023-05-24T20:20:57.636Z,48.50
2023-05-24T20:23:27.570Z,48.70
2023-05-24T20:25:55.736Z,48.48
2023-05-24T20:28:30.902Z,48.34
2023-05-24T20:30:58.689Z,48.46
2023-05-24T20:33:27.709Z,48.77
2023-05-24T20:35:56.799Z,48.61
2023-05-24T20:38:25.635Z,49.07
2023-05-24T20:40:54.537Z,49.36
2023-05-24T20:43:21.509Z,49.62
2023-05-24T20:45:50.442Z,49.61
2023-05-24T20:48:17.629Z,49.90
2023-05-24T20:50:44.499Z,49.79
2023-05-24T20:53:11.681Z,49.79
2023-05-24T20:55:40.868Z,49.76
2023-05-24T20:58:09.708Z,49.84
2023-05-24T21:00:38.261Z,50.06
2023-05-24T21:03:11.339Z,50.08
2023-05-24T21:05:40.132Z,50.63
2023-05-24T21:08:11.616Z,50.40
2023-05-24T21:10:40.792Z,50.39
2023-05-24T21:13:09.644Z,50.58
2023-05-24T21:15:36.371Z,50.84
2023-05-24T21:18:03.844Z,50.95
2023-05-24T21:20:30.602Z,50.96
2023-05-24T21:22:57.305Z,51.05
2023-05-24T21:25:24.547Z,51.36
2023-05-24T21:27:53.622Z,51.36
2023-05-24T21:30:20.483Z,51.62
2023-05-24T21:32:49.320Z,51.71
2023-05-24T21:35:21.556Z,51.86
2023-05-24T21:37:48.562Z,51.79
2023-05-24T21:40:15.739Z,51.92
2023-05-24T21:42:43.353Z,51.95
2023-05-24T21:45:12.751Z,52.04
2023-05-24T21:47:39.521Z,52.07
2023-05-24T21:50:06.849Z,51.97
2023-05-24T21:52:39.546Z,52.01
2023-05-24T21:55:06.575Z,52.37
2023-05-24T21:57:35.469Z,52.04
2023-05-24T22:00:05.127Z,52.26
2023-05-24T22:02:32.079Z,52.40
2023-05-24T22:05:01.707Z,52.49
2023-05-24T22:07:30.744Z,52.54
2023-05-24T22:09:59.788Z,52.75
2023-05-24T22:12:26.456Z,52.66
2023-05-24T22:14:57.861Z,52.80
2023-05-24T22:17:26.819Z,52.63
2023-05-24T22:19:55.732Z,52.76
2023-05-24T22:22:22.797Z,52.59
2023-05-24T22:24:51.789Z,52.85
2023-05-24T22:27:18.548Z,52.79
2023-05-24T22:29:48.425Z,52.93
2023-05-24T22:32:20.509Z,52.82
2023-05-24T22:34:47.303Z,52.64
2023-05-24T22:37:16.722Z,52.84
2023-05-24T22:39:46.016Z,52.74
2023-05-24T22:42:15.409Z,53.06
2023-05-24T22:44:46.579Z,52.99
2023-05-24T22:47:14.127Z,53.11
2023-05-24T22:49:43.130Z,53.27
2023-05-24T22:52:11.948Z,53.09
2023-05-24T22:54:40.833Z,53.30
2023-05-24T22:57:07.430Z,53.26
2023-05-24T22:59:37.416Z,53.19
2023-05-24T23:02:07.341Z,53.39
2023-05-24T23:04:34.097Z,53.31
2023-05-24T23:07:03.154Z,53.63
2023-05-24T23:09:35.396Z,53.50
2023-05-24T23:12:07.579Z,53.48
2023-05-24T23:14:38.632Z,53.56
2023-05-24T23:17:10.484Z,53.79
2023-05-24T23:19:43.332Z,53.89
2023-05-24T23:22:11.989Z,54.10
2023-05-24T23:24:44.546Z,53.74
2023-05-24T23:27:11.417Z,53.99
2023-05-24T23:29:59.450Z,54.07
2023-05-24T23:32:28.466Z,54.01
2023-05-24T23:34:55.341Z,54.16
2023-05-24T23:37:24.448Z,54.07
2023-05-24T23:39:52.037Z,54.20
2023-05-24T23:42:18.798Z,54.07
2023-05-24T23:44:50.180Z,54.45
2023-05-24T23:47:19.020Z,54.29
2023-05-24T23:49:47.789Z,54.40
2023-05-24T23:52:16.921Z,54.48
2023-05-24T23:54:45.791Z,54.59
2023-05-24T23:57:14.896Z,54.50
2023-05-24T23:59:43.786Z,54.32
